San Lorenzo, CA

11:04 PM PST on November 27, 2014 (GMT -0800)
KCASANLO2 | Change Station
CLOSE
Current Station
Personal Weather Station
Location: San Lorenzo, CA
Elevation: 13 ft
Nearby Weather Stations

Elev 13 ft 37.67 °N, 122.14 °W | Updated 4 minutes ago

Clear
Clear
48.0 °F
Feels Like 48 °F
N
1.0
Wind Variable Wind from North
Gusts 2.0 mph

Today
High -- | Low -- °F
--% Chance of Precip.
Yesterday
High -- | Low -- °F
Precip. -- in
7:01 AM 4:51 PM
Waxing Crescent, 37% visible
Pressure 30.10 in
Visibility 7.0 miles
Clouds Clear
Windchill 48 °F
Dew Point 47 °F
Humidity 96%
Rainfall 0.00 in
Snow Depth Not available.
UV 0 out of 12
Pollen 2.50 out of 12
Air Quality Not available.
Flu Activity Not available.
METAR KHWD 280654Z AUTO 00000KT 7SM CLR 07/07 A3007 RMK AO2 SLP193 T00720072

More Conditions Fewer Conditions

Pressure 30.10 in
Visibility 7.0 miles
Clouds Clear
Windchill 48 °F
Dew Point 47 °F
Humidity 96%
Rainfall 0.00 in
Snow Depth Not available.
UV 0 out of 12
Pollen 2.50 out of 12
Air Quality Not available.
Flu Activity Not available.
METAR KHWD 280654Z AUTO 00000KT 7SM CLR 07/07 A3007 RMK AO2 SLP193 T00720072

More Conditions Fewer Conditions

10-Day Weather Forecast

Almanac

Astronomy

Nov. 27, 2014 Rise Set
Actual Time
Civil Twilight
Nautical Twilight
Astronomical Twilight
Moon
Length of Visible Light
Length of Day
Tomorrow will be .
, % of the Moon is Illuminated

Today's Extremes

State Highs State Lows

Community

WunderPhotos

Upload Photos

1,774,194 photos uploaded!

WunderBlogs® & News

Nearby

Air Quality

  Air Quality AQ Index Pollutant
Not available.

Snow Depth

Station Depth Elevation

Earthquake Activity

City Distance Mag. Time & Date
Minimum magnitude displayed is 2.5.

Coastal Water Temperatures

Place Temperature

Nearby Weather Stations